Time;durP1;ratioP1;P1;durP2;ratioP2;P2;SDS_P1;SDS_P2;PMS_P1;PMS_P2;Temp;Humidity;BMP_temperature;BMP_pressure;BME280_temperature;BME280_humidity;BME280_pressure;Samples;Min_cycle;Max_cycle;Signal;HPM_P1;HPM_P2
2022/07/08 00:00:09;;;;;;;9.65;4.78;;;11.70;99.90;;;;;;5052737;28;20025;-88
2022/07/08 00:02:38;;;;;;;8.10;4.22;;;11.70;99.90;;;;;;5053361;28;20060;-86
2022/07/08 00:05:04;;;;;;;13.77;5.10;;;11.70;99.90;;;;;;5051462;28;20021;-86
2022/07/08 00:07:39;;;;;;;12.48;5.20;;;11.70;99.90;;;;;;5051770;28;20025;-86
2022/07/08 00:10:06;;;;;;;13.35;5.32;;;11.60;99.90;;;;;;5051595;28;20124;-86
2022/07/08 00:12:32;;;;;;;17.17;5.50;;;11.60;99.90;;;;;;5052615;28;20106;-86
2022/07/08 00:14:58;;;;;;;9.95;4.43;;;11.50;99.90;;;;;;5067447;28;20025;-87
2022/07/08 00:17:24;;;;;;;7.90;4.60;;;11.60;99.90;;;;;;5053668;28;20035;-85
2022/07/08 00:19:52;;;;;;;17.33;6.00;;;11.50;99.90;;;;;;5052086;28;20071;-86
2022/07/08 00:22:18;;;;;;;12.15;4.30;;;11.50;99.90;;;;;;5051489;28;20036;-86
2022/07/08 00:24:44;;;;;;;12.75;4.82;;;11.40;99.90;;;;;;5053838;28;20114;-87
2022/07/08 00:27:10;;;;;;;14.75;4.13;;;11.40;99.90;;;;;;5052282;28;20029;-86
2022/07/08 00:29:35;;;;;;;17.95;4.57;;;11.40;99.90;;;;;;5051274;28;20028;-85
2022/07/08 00:32:02;;;;;;;11.80;4.45;;;11.40;99.90;;;;;;5052589;28;20029;-84
2022/07/08 00:34:35;;;;;;;11.05;4.50;;;11.40;99.90;;;;;;5052822;28;20040;-87
2022/07/08 00:37:02;;;;;;;14.18;4.57;;;11.30;99.90;;;;;;5052057;28;20502;-86
2022/07/08 00:39:28;;;;;;;13.88;3.95;;;11.30;99.90;;;;;;5068990;28;20033;-87
2022/07/08 00:41:54;;;;;;;20.63;5.03;;;11.20;99.90;;;;;;5051544;28;20039;-87
2022/07/08 00:44:19;;;;;;;14.27;5.68;;;11.20;99.90;;;;;;5052528;28;20104;-86
2022/07/08 00:46:49;;;;;;;11.35;4.03;;;11.20;99.90;;;;;;5053121;28;20099;-87
2022/07/08 00:49:14;;;;;;;10.23;3.67;;;11.20;99.90;;;;;;5052912;28;20029;-86
2022/07/08 00:51:41;;;;;;;16.52;4.13;;;11.20;99.90;;;;;;5052313;28;20114;-84
2022/07/08 00:54:08;;;;;;;15.68;5.43;;;11.20;99.90;;;;;;5051826;28;20036;-87
2022/07/08 00:56:34;;;;;;;10.65;4.88;;;11.10;99.90;;;;;;5052099;28;20064;-86
2022/07/08 00:59:00;;;;;;;11.52;4.40;;;11.10;99.90;;;;;;5057779;28;20710;-87
2022/07/08 01:01:31;;;;;;;14.68;4.40;;;11.00;99.90;;;;;;5069190;28;20569;-86
2022/07/08 01:03:56;;;;;;;18.92;4.07;;;11.00;99.90;;;;;;5068398;28;20482;-89
2022/07/08 01:06:22;;;;;;;16.05;4.40;;;10.90;99.90;;;;;;5053279;28;20032;-86
2022/07/08 01:08:48;;;;;;;15.65;4.32;;;10.90;99.90;;;;;;5068765;28;20100;-88
2022/07/08 01:11:14;;;;;;;14.52;4.03;;;10.90;99.90;;;;;;5067996;28;20060;-87
2022/07/08 01:13:40;;;;;;;12.57;4.45;;;10.90;99.90;;;;;;5051654;28;20037;-87
2022/07/08 01:16:09;;;;;;;15.10;4.78;;;10.80;99.90;;;;;;5052740;28;20028;-86
2022/07/08 01:18:35;;;;;;;20.63;5.05;;;10.70;99.90;;;;;;5053055;28;20029;-85
2022/07/08 01:21:02;;;;;;;18.48;4.80;;;10.60;99.90;;;;;;5051438;28;20079;-86
2022/07/08 01:23:28;;;;;;;9.35;4.18;;;10.60;99.90;;;;;;5068474;28;20025;-87
2022/07/08 01:25:55;;;;;;;15.75;3.97;;;10.60;99.90;;;;;;5053172;28;20036;-88
2022/07/08 01:28:30;;;;;;;12.68;4.22;;;10.60;99.90;;;;;;5068836;28;20037;-87
2022/07/08 01:30:56;;;;;;;11.20;4.40;;;10.70;99.90;;;;;;5055347;28;20077;-88
2022/07/08 01:33:22;;;;;;;14.00;5.63;;;10.70;99.90;;;;;;5063082;28;20028;-87
2022/07/08 01:35:47;;;;;;;21.60;5.32;;;10.60;99.90;;;;;;5069838;28;20037;-86
2022/07/08 01:38:13;;;;;;;14.68;4.75;;;10.50;99.90;;;;;;5069432;28;20090;-88
2022/07/08 01:40:46;;;;;;;13.23;5.07;;;10.50;99.90;;;;;;5066928;28;20032;-89
2022/07/08 01:43:12;;;;;;;11.77;4.60;;;10.40;99.90;;;;;;5067848;28;20659;-86
2022/07/08 01:45:37;;;;;;;11.60;4.20;;;10.30;99.90;;;;;;5051846;28;20039;-85
2022/07/08 01:48:04;;;;;;;13.27;4.28;;;10.30;99.90;;;;;;5051989;28;20116;-86
2022/07/08 01:50:29;;;;;;;14.52;4.57;;;10.20;99.90;;;;;;5052715;28;20025;-86
2022/07/08 01:52:55;;;;;;;13.73;4.78;;;10.20;99.90;;;;;;5052402;28;20021;-84
2022/07/08 01:55:24;;;;;;;10.23;4.07;;;10.30;99.90;;;;;;5050894;28;20040;-87
2022/07/08 01:57:50;;;;;;;13.95;5.38;;;10.30;99.90;;;;;;5051189;28;20111;-86
2022/07/08 02:00:16;;;;;;;15.40;4.93;;;10.20;99.90;;;;;;5050476;28;20111;-86
2022/07/08 02:02:41;;;;;;;19.70;4.80;;;10.20;99.90;;;;;;5052683;28;20079;-86
2022/07/08 02:05:09;;;;;;;11.57;4.57;;;10.20;99.90;;;;;;5051989;28;20104;-86
2022/07/08 02:07:35;;;;;;;11.93;3.65;;;10.10;99.90;;;;;;5050733;28;20107;-86
2022/07/08 02:10:04;;;;;;;22.70;4.75;;;10.00;99.90;;;;;;5067022;28;20025;-86
2022/07/08 02:12:30;;;;;;;13.82;5.18;;;10.00;99.90;;;;;;5065585;28;20037;-87
2022/07/08 02:15:04;;;;;;;14.95;4.32;;;10.00;99.90;;;;;;5052857;28;20397;-87
2022/07/08 02:17:31;;;;;;;10.10;4.22;;;10.00;99.90;;;;;;5069613;28;20025;-86
2022/07/08 02:20:07;;;;;;;15.73;4.30;;;10.00;99.90;;;;;;5053229;28;20028;-87
2022/07/08 02:22:34;;;;;;;9.30;4.15;;;10.00;99.90;;;;;;5065477;28;20032;-86
2022/07/08 02:25:00;;;;;;;21.92;5.18;;;10.10;99.90;;;;;;5051489;28;20029;-86
2022/07/08 02:27:26;;;;;;;9.98;4.22;;;10.00;99.90;;;;;;5052979;28;20051;-87
2022/07/08 02:30:01;;;;;;;15.95;4.20;;;10.00;99.90;;;;;;5053361;28;20533;-87
2022/07/08 02:32:27;;;;;;;17.35;5.05;;;10.00;99.90;;;;;;5053671;28;20044;-88
2022/07/08 02:34:52;;;;;;;12.90;4.13;;;9.90;99.90;;;;;;5051964;28;20036;-87
2022/07/08 02:37:19;;;;;;;16.05;4.35;;;9.90;99.90;;;;;;5067769;28;20056;-87
2022/07/08 02:39:44;;;;;;;19.02;4.55;;;9.90;99.90;;;;;;5051790;28;20029;-87
2022/07/08 02:42:10;;;;;;;13.10;5.13;;;9.90;99.90;;;;;;5052025;28;20021;-87
2022/07/08 02:44:38;;;;;;;14.10;4.90;;;9.70;99.90;;;;;;5051478;28;20044;-87
2022/07/08 02:47:05;;;;;;;19.45;4.35;;;9.60;99.90;;;;;;5055483;28;20575;-86
2022/07/08 02:49:31;;;;;;;15.70;4.13;;;9.60;99.90;;;;;;5049960;28;20024;-88
2022/07/08 02:51:57;;;;;;;13.30;3.90;;;9.60;99.90;;;;;;5050311;28;20639;-87
2022/07/08 02:54:23;;;;;;;12.73;4.15;;;9.60;99.90;;;;;;5070554;28;20112;-87
2022/07/08 02:56:48;;;;;;;13.40;4.75;;;9.60;99.90;;;;;;5054362;28;20486;-87
2022/07/08 02:59:17;;;;;;;10.23;4.10;;;9.60;99.90;;;;;;5054389;28;20041;-87
2022/07/08 03:01:42;;;;;;;13.10;3.80;;;9.80;99.90;;;;;;5054450;28;20111;-87
2022/07/08 03:04:08;;;;;;;10.20;4.13;;;9.90;99.90;;;;;;5054435;28;20410;-87
2022/07/08 03:06:34;;;;;;;15.70;4.50;;;9.90;99.90;;;;;;5053599;28;20121;-87
2022/07/08 03:08:59;;;;;;;11.57;4.13;;;9.90;99.90;;;;;;5053595;28;20075;-87
2022/07/08 03:11:27;;;;;;;15.00;4.50;;;9.90;99.90;;;;;;5070986;28;20029;-87
2022/07/08 03:13:55;;;;;;;12.68;3.92;;;10.10;99.90;;;;;;5069904;28;20056;-87
2022/07/08 03:16:21;;;;;;;16.20;3.85;;;10.20;99.90;;;;;;5053476;28;20331;-87
2022/07/08 03:18:46;;;;;;;11.80;3.90;;;10.30;99.90;;;;;;5053199;28;20037;-88
2022/07/08 03:21:12;;;;;;;15.93;3.75;;;10.30;99.90;;;;;;5054316;28;20489;-87
2022/07/08 03:23:38;;;;;;;18.70;4.88;;;10.40;99.90;;;;;;5053282;28;20488;-86
2022/07/08 03:26:03;;;;;;;11.48;3.67;;;10.30;99.90;;;;;;5046809;28;20017;-87
2022/07/08 03:28:32;;;;;;;12.82;4.05;;;10.40;99.90;;;;;;5032073;28;20486;-87
2022/07/08 03:31:00;;;;;;;9.18;4.10;;;10.30;99.90;;;;;;5052071;28;20025;-87
2022/07/08 03:33:25;;;;;;;12.70;4.25;;;10.30;99.90;;;;;;5052948;28;20044;-87
2022/07/08 03:35:51;;;;;;;17.38;4.47;;;10.20;99.90;;;;;;5065763;28;20036;-87
2022/07/08 03:38:17;;;;;;;12.48;3.85;;;10.20;99.90;;;;;;5054477;28;20064;-87
2022/07/08 03:43:27;;;;;;;11.13;3.90;;;10.20;99.90;;;;;;5049040;28;20101;-86
2022/07/08 03:45:52;;;;;;;12.77;3.63;;;10.30;99.90;;;;;;5052284;28;20549;-87
2022/07/08 03:48:18;;;;;;;13.00;4.35;;;10.40;99.90;;;;;;5053096;28;20701;-87
2022/07/08 03:50:44;;;;;;;17.58;3.97;;;10.50;99.90;;;;;;5069317;28;20056;-87
2022/07/08 03:53:12;;;;;;;10.77;3.50;;;10.70;99.90;;;;;;5068570;28;20407;-87
2022/07/08 03:55:38;;;;;;;9.55;3.53;;;10.80;99.90;;;;;;5051262;28;20021;-87
2022/07/08 03:58:03;;;;;;;11.65;3.50;;;10.80;99.90;;;;;;5034921;28;20158;-87
2022/07/08 04:00:29;;;;;;;13.55;3.55;;;10.90;99.90;;;;;;5052641;28;20039;-87
2022/07/08 04:02:55;;;;;;;13.68;3.80;;;11.00;99.90;;;;;;5051095;28;20116;-85
2022/07/08 04:05:20;;;;;;;15.57;3.95;;;11.10;99.90;;;;;;5051745;28;20481;-87
2022/07/08 04:07:53;;;;;;;9.43;2.80;;;11.20;99.90;;;;;;5054555;28;20017;-87
2022/07/08 04:10:19;;;;;;;17.95;3.00;;;11.20;99.90;;;;;;5049960;28;20177;-87
2022/07/08 04:12:45;;;;;;;7.28;2.90;;;11.30;99.90;;;;;;5052661;28;20076;-87
2022/07/08 04:15:12;;;;;;;11.60;3.20;;;11.40;99.90;;;;;;5052951;28;20056;-87
2022/07/08 04:17:38;;;;;;;9.52;3.25;;;11.40;99.90;;;;;;5065145;28;20105;-88
2022/07/08 04:20:11;;;;;;;8.93;3.17;;;11.40;99.90;;;;;;5074478;28;20021;-88
2022/07/08 04:22:37;;;;;;;13.05;3.40;;;11.50;99.90;;;;;;5062699;28;20029;-87
2022/07/08 04:25:03;;;;;;;8.52;2.97;;;11.60;99.90;;;;;;5058776;28;20028;-89
2022/07/08 04:27:29;;;;;;;11.30;3.60;;;11.70;99.90;;;;;;5076671;28;20047;-87
2022/07/08 04:29:55;;;;;;;8.05;2.67;;;11.80;99.90;;;;;;5068467;28;20029;-87
2022/07/08 04:32:20;;;;;;;11.43;3.40;;;11.80;99.90;;;;;;5068598;28;20029;-87
2022/07/08 04:34:51;;;;;;;13.80;2.65;;;11.80;99.90;;;;;;5051937;28;20035;-87
2022/07/08 04:37:17;;;;;;;14.65;4.38;;;11.90;99.90;;;;;;5050992;28;20039;-87
2022/07/08 04:39:44;;;;;;;7.50;2.70;;;11.90;99.90;;;;;;5052147;28;20441;-87
2022/07/08 04:42:09;;;;;;;12.52;3.05;;;12.00;99.90;;;;;;5051526;28;20056;-87
2022/07/08 04:44:35;;;;;;;10.15;3.17;;;12.20;99.90;;;;;;5052789;28;20084;-87
2022/07/08 04:47:03;;;;;;;14.30;3.45;;;12.20;99.90;;;;;;5051855;28;20021;-87
2022/07/08 04:49:32;;;;;;;13.02;3.13;;;12.30;99.90;;;;;;5070028;28;20025;-87
2022/07/08 04:51:58;;;;;;;12.85;2.95;;;12.30;99.90;;;;;;5052722;28;20116;-87
2022/07/08 04:54:24;;;;;;;11.13;3.00;;;12.40;99.90;;;;;;5066830;28;20037;-86
2022/07/08 04:56:50;;;;;;;8.00;2.58;;;12.50;99.90;;;;;;5053212;28;20169;-87
2022/07/08 04:59:15;;;;;;;5.95;2.58;;;12.50;99.90;;;;;;5051181;28;20040;-87
2022/07/08 05:01:44;;;;;;;10.65;3.03;;;12.60;99.90;;;;;;5052591;28;20434;-87
2022/07/08 05:04:09;;;;;;;7.78;3.00;;;12.60;99.90;;;;;;5051407;28;20486;-88
2022/07/08 05:06:35;;;;;;;15.50;2.72;;;12.60;99.90;;;;;;5052962;28;20047;-87
2022/07/08 05:09:01;;;;;;;11.50;2.70;;;12.70;99.90;;;;;;5052263;28;20037;-87
2022/07/08 05:11:26;;;;;;;6.97;2.97;;;12.80;99.90;;;;;;5065728;28;20040;-89
2022/07/08 05:13:52;;;;;;;13.85;3.03;;;12.80;99.90;;;;;;5067941;28;20143;-87
2022/07/08 05:16:25;;;;;;;8.18;2.80;;;12.90;99.90;;;;;;5046757;28;20036;-87
2022/07/08 05:18:51;;;;;;;10.13;2.70;;;13.10;99.90;;;;;;5053077;28;20782;-87
2022/07/08 05:21:17;;;;;;;8.45;2.50;;;13.20;99.90;;;;;;5052975;28;20036;-87
2022/07/08 05:23:42;;;;;;;8.57;3.00;;;13.30;99.90;;;;;;5052261;28;20060;-88
2022/07/08 05:26:08;;;;;;;15.85;2.83;;;13.40;99.90;;;;;;5052437;28;20452;-86
2022/07/08 05:28:34;;;;;;;17.33;2.97;;;13.30;99.90;;;;;;5052099;28;20053;-87
2022/07/08 05:31:03;;;;;;;16.38;5.38;;;13.40;99.90;;;;;;5050427;28;20036;-87
2022/07/08 05:33:29;;;;;;;19.00;3.42;;;13.50;99.90;;;;;;5059949;28;20037;-87
2022/07/08 05:35:54;;;;;;;9.90;2.30;;;13.70;99.90;;;;;;5049262;28;20029;-87
2022/07/08 05:38:20;;;;;;;16.70;2.97;;;13.80;99.90;;;;;;5050177;28;20848;-87
2022/07/08 05:40:46;;;;;;;12.07;3.10;;;13.90;99.90;;;;;;5066991;28;20029;-87
2022/07/08 05:43:11;;;;;;;7.68;2.65;;;14.00;99.90;;;;;;5059285;28;20025;-89
2022/07/08 05:45:45;;;;;;;15.48;2.80;;;13.90;99.90;;;;;;5054855;28;20095;-88
2022/07/08 05:48:10;;;;;;;5.38;2.63;;;13.80;99.90;;;;;;5044832;28;20533;-87
2022/07/08 05:50:36;;;;;;;9.18;2.65;;;13.60;99.90;;;;;;5065026;28;20017;-85
2022/07/08 05:53:02;;;;;;;15.98;2.47;;;13.70;99.90;;;;;;5028034;28;20033;-86
2022/07/08 05:55:28;;;;;;;9.57;3.70;;;13.60;99.90;;;;;;5051447;28;20036;-86
2022/07/08 05:57:53;;;;;;;8.65;2.20;;;13.60;99.90;;;;;;5049235;28;20025;-87
2022/07/08 06:00:22;;;;;;;9.52;2.72;;;13.80;99.90;;;;;;5045709;28;20110;-86
2022/07/08 06:02:48;;;;;;;12.00;2.75;;;14.10;99.90;;;;;;5050667;28;20029;-87
2022/07/08 06:05:13;;;;;;;11.50;2.45;;;14.20;99.90;;;;;;5049542;28;20021;-86
2022/07/08 06:07:39;;;;;;;3.55;1.90;;;14.30;99.90;;;;;;5049080;28;20124;-86
2022/07/08 06:10:06;;;;;;;8.32;3.38;;;14.30;99.90;;;;;;5065301;28;20094;-86
2022/07/08 06:12:31;;;;;;;9.38;2.65;;;14.30;99.90;;;;;;5032487;28;20033;-86
2022/07/08 06:14:59;;;;;;;9.90;2.47;;;14.40;99.90;;;;;;5051632;28;20029;-88
2022/07/08 06:17:25;;;;;;;7.30;2.20;;;14.60;99.90;;;;;;5046624;28;20036;-87
2022/07/08 06:19:51;;;;;;;6.20;2.30;;;14.60;99.90;;;;;;5031378;28;20093;-86
2022/07/08 06:22:16;;;;;;;6.38;2.28;;;14.60;99.90;;;;;;5049273;28;20040;-86
2022/07/08 06:24:42;;;;;;;6.82;2.17;;;14.60;99.90;;;;;;5072566;28;20670;-86
2022/07/08 06:27:08;;;;;;;8.43;2.35;;;14.70;99.90;;;;;;5051545;28;20454;-86
2022/07/08 06:29:33;;;;;;;7.88;2.35;;;14.70;99.90;;;;;;5050724;28;20021;-88
2022/07/08 06:32:07;;;;;;;11.82;2.85;;;14.90;99.90;;;;;;5043007;28;20032;-86
2022/07/08 06:34:33;;;;;;;7.65;2.38;;;15.30;99.90;;;;;;5052274;28;20032;-85
2022/07/08 06:36:59;;;;;;;9.27;2.22;;;15.70;99.90;;;;;;5052437;28;20039;-88
2022/07/08 06:39:25;;;;;;;5.10;2.08;;;15.50;99.90;;;;;;5053573;28;20033;-87
2022/07/08 06:41:50;;;;;;;7.60;2.10;;;15.40;99.90;;;;;;5067858;28;20025;-86
2022/07/08 06:44:18;;;;;;;9.68;2.40;;;15.30;99.90;;;;;;5053018;28;20104;-87
2022/07/08 06:46:44;;;;;;;9.25;2.22;;;15.30;99.90;;;;;;5040261;28;20036;-86
2022/07/08 06:49:10;;;;;;;6.90;1.95;;;15.60;99.90;;;;;;5052354;28;20039;-86
2022/07/08 06:51:36;;;;;;;7.55;1.95;;;15.80;99.90;;;;;;5065260;28;20033;-87
2022/07/08 06:56:46;;;;;;;11.65;2.30;;;16.30;99.90;;;;;;5068745;28;20083;-85
2022/07/08 06:59:11;;;;;;;8.50;1.60;;;16.20;99.90;;;;;;5060931;28;20029;-86
2022/07/08 07:01:37;;;;;;;6.45;1.92;;;16.00;99.90;;;;;;5036999;28;20029;-86
2022/07/08 07:04:04;;;;;;;8.43;2.10;;;16.20;99.90;;;;;;5052982;28;20771;-86
2022/07/08 07:06:48;;;;;;;7.90;1.85;;;16.00;99.90;;;;;;5069300;28;20037;-86
2022/07/08 07:09:17;;;;;;;9.70;1.85;;;15.90;99.90;;;;;;5073402;22;20029;-91
2022/07/08 07:11:43;;;;;;;11.10;1.83;;;15.70;99.90;;;;;;5057931;28;20124;-91
2022/07/08 07:14:46;;;;;;;7.32;1.92;;;15.70;99.90;;;;;;5048909;28;20024;-89
2022/07/08 07:17:12;;;;;;;8.75;1.52;;;15.80;99.90;;;;;;5080697;28;20032;-90
2022/07/08 07:19:38;;;;;;;6.13;1.70;;;15.60;99.90;;;;;;5069589;28;20050;-88
2022/07/08 07:26:05;;;;;;;9.82;1.80;;;15.60;99.90;;;;;;5063338;28;20035;-91
2022/07/08 07:28:30;;;;;;;5.55;1.48;;;16.30;99.90;;;;;;5059723;28;20024;-90
2022/07/08 07:30:56;;;;;;;5.80;1.35;;;17.00;99.90;;;;;;5090096;28;20460;-91
2022/07/08 07:33:22;;;;;;;11.55;1.50;;;17.40;99.90;;;;;;5077092;28;20495;-91
2022/07/08 07:35:47;;;;;;;8.20;1.23;;;17.40;99.90;;;;;;5060626;28;20060;-90
2022/07/08 07:38:13;;;;;;;6.25;2.28;;;17.50;99.90;;;;;;5064466;28;20021;-89
2022/07/08 07:40:39;;;;;;;6.45;1.67;;;17.40;99.90;;;;;;5047687;28;20029;-90
2022/07/08 07:43:05;;;;;;;5.88;1.60;;;16.70;99.90;;;;;;5047413;28;20025;-91
2022/07/08 07:45:31;;;;;;;8.30;1.70;;;16.60;99.90;;;;;;5056597;28;20086;-91
2022/07/08 07:47:56;;;;;;;6.30;1.50;;;16.40;99.90;;;;;;5051789;28;20529;-91
2022/07/08 07:50:22;;;;;;;7.32;1.75;;;16.40;99.90;;;;;;5047919;28;20063;-90
2022/07/08 07:52:48;;;;;;;9.63;1.85;;;16.60;99.90;;;;;;5082745;28;20120;-91
2022/07/08 07:55:42;;;;;;;7.78;1.90;;;16.40;99.90;;;;;;5048916;28;20060;-91
2022/07/08 07:58:08;;;;;;;12.23;1.55;;;16.70;99.90;;;;;;5064961;28;20391;-92
2022/07/08 08:00:34;;;;;;;6.18;1.90;;;16.80;99.90;;;;;;5081561;28;20064;-89
2022/07/08 08:02:59;;;;;;;4.20;1.50;;;16.90;99.90;;;;;;5048020;28;20032;-90
2022/07/08 08:05:25;;;;;;;8.45;1.63;;;16.80;99.90;;;;;;5054295;28;20060;-92
2022/07/08 08:07:51;;;;;;;6.57;1.60;;;16.80;99.90;;;;;;5059873;28;20020;-92
2022/07/08 08:10:17;;;;;;;9.30;1.73;;;17.30;99.90;;;;;;5073217;28;20025;-92
2022/07/08 08:12:42;;;;;;;8.18;1.83;;;17.50;99.90;;;;;;5055613;28;20075;-90
2022/07/08 08:15:09;;;;;;;7.93;1.98;;;17.50;99.90;;;;;;5085062;28;20077;-92
2022/07/08 08:17:39;;;;;;;10.68;2.22;;;17.30;99.90;;;;;;5051985;28;20149;-92
2022/07/08 08:20:06;;;;;;;4.85;1.60;;;17.40;99.90;;;;;;5060143;28;20036;-92
2022/07/08 08:22:32;;;;;;;5.60;1.95;;;17.50;99.90;;;;;;5054053;28;20119;-92
2022/07/08 08:24:58;;;;;;;8.15;1.67;;;17.60;99.90;;;;;;5073686;28;20060;-92
2022/07/08 08:27:24;;;;;;;7.25;2.17;;;17.30;99.90;;;;;;5070135;28;20115;-90
2022/07/08 08:29:50;;;;;;;6.50;1.92;;;16.70;99.90;;;;;;5067441;28;20067;-93
2022/07/08 08:32:15;;;;;;;7.95;1.70;;;16.70;99.90;;;;;;5059597;28;20032;-90
2022/07/08 08:34:41;;;;;;;13.35;1.90;;;16.60;99.90;;;;;;5050581;28;20035;-92
2022/07/08 08:37:07;;;;;;;9.27;1.70;;;16.40;99.90;;;;;;5060657;28;20055;-91
2022/07/08 08:39:33;;;;;;;12.23;2.58;;;16.40;99.90;;;;;;5064027;28;20036;-91
2022/07/08 08:41:59;;;;;;;8.95;1.58;;;16.60;99.90;;;;;;5064944;28;20040;-90
2022/07/08 08:44:26;;;;;;;8.50;2.13;;;16.70;99.90;;;;;;5052452;28;20033;-94
2022/07/08 08:47:27;;;;;;;8.45;2.42;;;16.60;99.90;;;;;;5057675;28;20177;-91
2022/07/08 08:49:56;;;;;;;7.82;2.08;;;16.30;99.90;;;;;;5082309;28;20025;-91
2022/07/08 08:52:24;;;;;;;10.52;1.95;;;16.10;99.90;;;;;;5077166;28;20040;-90
2022/07/08 08:55:06;;;;;;;4.60;1.50;;;16.30;99.90;;;;;;5067376;28;20036;-91
2022/07/08 08:57:32;;;;;;;5.85;1.60;;;18.20;99.90;;;;;;5065710;28;20028;-91
2022/07/08 08:59:58;;;;;;;6.65;1.63;;;20.70;99.90;;;;;;5068335;28;20093;-93
2022/07/08 09:02:24;;;;;;;4.60;1.60;;;22.50;99.90;;;;;;5065545;28;20051;-92
2022/07/08 09:04:50;;;;;;;7.03;1.90;;;23.20;97.80;;;;;;5062239;28;20017;-92
2022/07/08 09:07:16;;;;;;;4.00;1.52;;;22.20;97.40;;;;;;5076598;28;20436;-92
2022/07/08 09:09:42;;;;;;;5.28;1.45;;;21.80;97.80;;;;;;5069511;28;20031;-93
2022/07/08 09:12:22;;;;;;;6.68;1.67;;;21.40;97.30;;;;;;5055793;28;20501;-92
2022/07/08 09:14:50;;;;;;;9.82;2.05;;;20.40;98.50;;;;;;5056484;28;20024;-91
2022/07/08 09:17:17;;;;;;;7.50;1.95;;;19.80;99.40;;;;;;5085448;28;20429;-93
2022/07/08 09:19:52;;;;;;;5.05;1.70;;;20.10;99.60;;;;;;5055997;28;20060;-91
2022/07/08 09:22:21;;;;;;;11.15;1.80;;;20.40;98.70;;;;;;5057966;28;20036;-94
2022/07/08 09:24:47;;;;;;;6.55;1.60;;;20.70;98.10;;;;;;5057767;28;20043;-92
2022/07/08 09:27:13;;;;;;;7.80;2.88;;;21.00;97.60;;;;;;5075836;28;20029;-90
2022/07/08 09:30:00;;;;;;;5.43;1.58;;;21.40;96.60;;;;;;5057598;28;20029;-92
2022/07/08 09:32:27;;;;;;;9.80;2.05;;;22.60;95.80;;;;;;5067018;28;20036;-92
2022/07/08 09:34:52;;;;;;;5.50;1.63;;;23.00;93.70;;;;;;5050466;28;20035;-91
2022/07/08 09:37:19;;;;;;;4.05;1.73;;;22.70;93.90;;;;;;5076542;28;20384;-94
2022/07/08 09:39:46;;;;;;;4.22;1.65;;;22.40;94.10;;;;;;5052559;28;20075;-91
2022/07/08 09:42:14;;;;;;;11.80;1.90;;;22.10;93.60;;;;;;5067645;28;20025;-91
2022/07/08 09:44:40;;;;;;;6.75;1.77;;;22.00;94.40;;;;;;5070676;28;20040;-93
2022/07/08 09:47:13;;;;;;;5.47;1.95;;;22.50;93.90;;;;;;5055074;28;20036;-93
2022/07/08 09:49:47;;;;;;;8.27;2.08;;;23.50;92.00;;;;;;5057106;28;20044;-93
2022/07/08 09:52:21;;;;;;;6.68;1.85;;;23.10;92.30;;;;;;5088268;28;20029;-91
2022/07/08 09:55:02;;;;;;;9.80;1.67;;;23.30;92.20;;;;;;5057982;28;20048;-93
2022/07/08 09:57:29;;;;;;;8.75;1.58;;;24.00;91.00;;;;;;5072511;28;20033;-92
2022/07/08 09:59:55;;;;;;;4.95;1.45;;;24.40;90.50;;;;;;5074698;28;20032;-91
2022/07/08 10:02:21;;;;;;;13.18;2.13;;;24.30;90.10;;;;;;5056706;28;20028;-92
2022/07/08 10:04:51;;;;;;;7.95;1.52;;;24.90;86.10;;;;;;5074135;28;20024;-91
2022/07/08 10:07:17;;;;;;;5.25;1.30;;;24.20;86.70;;;;;;5088636;28;20380;-93
2022/07/08 10:09:43;;;;;;;7.60;1.88;;;24.30;87.00;;;;;;5075534;28;20081;-92
2022/07/08 10:12:12;;;;;;;6.30;1.75;;;24.20;87.70;;;;;;5085294;28;20025;-91
2022/07/08 10:14:38;;;;;;;5.57;1.75;;;23.20;87.00;;;;;;5052278;28;20492;-95
2022/07/08 10:17:09;;;;;;;5.65;1.65;;;22.20;90.30;;;;;;5049289;28;20036;-92
2022/07/08 10:19:40;;;;;;;7.75;1.65;;;21.80;90.70;;;;;;5056638;28;20067;-92
2022/07/08 10:22:09;;;;;;;8.20;1.88;;;22.30;90.90;;;;;;5054072;28;20387;-92
2022/07/08 10:24:39;;;;;;;7.68;1.80;;;22.90;87.80;;;;;;5047879;28;20056;-90
2022/07/08 10:27:05;;;;;;;7.50;1.33;;;22.90;89.10;;;;;;5075469;28;20029;-93
2022/07/08 10:29:33;;;;;;;4.72;2.03;;;22.20;90.20;;;;;;5067428;28;20020;-92
2022/07/08 10:32:00;;;;;;;7.80;1.90;;;21.80;90.70;;;;;;5055110;28;20131;-91
2022/07/08 10:34:31;;;;;;;6.50;1.73;;;21.30;92.00;;;;;;5045870;28;20092;-92
2022/07/08 10:36:57;;;;;;;25.00;2.10;;;20.90;93.40;;;;;;5064263;28;20529;-91
2022/07/08 10:39:29;;;;;;;9.18;1.95;;;20.30;93.30;;;;;;5062029;28;20036;-90
2022/07/08 10:41:56;;;;;;;4.90;1.45;;;20.20;92.50;;;;;;5081569;28;20044;-93
2022/07/08 10:44:44;;;;;;;11.13;1.90;;;20.50;94.10;;;;;;5044753;28;20035;-94
2022/07/08 10:47:53;;;;;;;9.50;1.67;;;20.60;92.70;;;;;;5047221;28;20025;-94
2022/07/08 10:50:22;;;;;;;6.50;1.80;;;20.70;92.60;;;;;;5064543;28;20075;-94
2022/07/08 10:52:48;;;;;;;6.05;1.75;;;20.80;93.60;;;;;;5048896;28;20036;-92
2022/07/08 10:55:16;;;;;;;5.07;1.50;;;21.20;92.70;;;;;;5067587;28;20029;-93
2022/07/08 10:57:55;;;;;;;4.00;1.55;;;21.60;91.60;;;;;;5045840;28;20040;-91
2022/07/08 11:00:22;;;;;;;12.63;2.00;;;21.80;91.30;;;;;;5064114;28;20029;-94
2022/07/08 11:02:50;;;;;;;7.10;1.90;;;21.80;90.90;;;;;;5047812;28;20029;-93
2022/07/08 11:05:42;;;;;;;8.15;2.13;;;21.90;91.20;;;;;;5049989;28;20379;-93
2022/07/08 11:08:20;;;;;;;5.25;2.20;;;21.90;91.20;;;;;;5054808;28;20077;-91
2022/07/08 11:10:49;;;;;;;6.93;2.15;;;21.90;91.70;;;;;;5073007;28;20388;-94
2022/07/08 11:13:15;;;;;;;4.43;1.88;;;21.60;90.70;;;;;;5051299;28;20518;-93
2022/07/08 11:15:41;;;;;;;8.73;2.20;;;21.20;91.40;;;;;;5070077;28;20111;-91
2022/07/08 11:18:07;;;;;;;7.63;3.08;;;21.50;91.70;;;;;;5046538;28;20031;-92
2022/07/08 11:20:35;;;;;;;5.60;1.52;;;21.90;91.00;;;;;;5053309;28;20032;-94
2022/07/08 11:23:05;;;;;;;4.53;1.58;;;22.40;90.90;;;;;;5073955;28;20119;-93
2022/07/08 11:25:34;;;;;;;8.02;2.25;;;22.60;90.20;;;;;;5060738;28;20074;-93
2022/07/08 11:28:00;;;;;;;5.78;2.15;;;22.90;91.00;;;;;;5067123;28;20182;-94
2022/07/08 11:30:30;;;;;;;11.65;1.75;;;22.60;90.50;;;;;;5077053;28;20026;-94
2022/07/08 11:32:58;;;;;;;5.78;1.50;;;22.60;90.10;;;;;;5085881;28;20028;-94
2022/07/08 11:35:24;;;;;;;7.68;2.85;;;22.00;91.40;;;;;;5057502;28;20032;-93
2022/07/08 11:38:41;;;;;;;6.30;1.70;;;22.00;89.00;;;;;;5059797;28;20055;-94
2022/07/08 11:41:07;;;;;;;8.15;1.63;;;22.00;91.00;;;;;;5058960;28;20032;-93
2022/07/08 11:43:32;;;;;;;7.43;2.17;;;21.80;89.70;;;;;;5087572;28;20494;-92
2022/07/08 11:45:58;;;;;;;8.40;1.92;;;21.80;90.00;;;;;;5061329;28;20032;-94
2022/07/08 11:48:38;;;;;;;7.28;2.00;;;22.00;90.40;;;;;;5054255;28;20055;-93
2022/07/08 11:51:03;;;;;;;7.35;1.90;;;22.00;90.20;;;;;;5060691;28;20033;-93
2022/07/08 11:53:30;;;;;;;4.55;2.20;;;21.90;91.00;;;;;;5092512;28;20035;-93
2022/07/08 11:55:56;;;;;;;8.85;2.03;;;22.10;89.80;;;;;;5077548;28;20126;-92
2022/07/08 11:58:23;;;;;;;9.52;2.20;;;22.30;90.40;;;;;;5058177;28;20029;-93
2022/07/08 12:00:50;;;;;;;10.25;2.15;;;22.50;90.70;;;;;;5085713;28;20104;-92
2022/07/08 12:03:16;;;;;;;14.88;1.67;;;22.40;90.00;;;;;;5082937;28;20037;-94
2022/07/08 12:05:42;;;;;;;7.32;1.73;;;22.10;90.50;;;;;;5058832;28;20061;-94
2022/07/08 12:08:12;;;;;;;10.90;2.13;;;22.20;90.60;;;;;;5075966;28;20494;-94
2022/07/08 12:10:38;;;;;;;6.82;1.90;;;22.30;90.10;;;;;;5050542;28;20028;-93
2022/07/08 12:13:03;;;;;;;6.47;2.00;;;22.10;90.40;;;;;;5069769;28;20082;-91
2022/07/08 12:15:37;;;;;;;7.78;1.65;;;21.60;90.60;;;;;;5070420;28;20028;-90
2022/07/08 12:18:04;;;;;;;4.57;1.92;;;21.60;90.90;;;;;;5051485;28;20048;-87
2022/07/08 12:20:42;;;;;;;7.32;1.85;;;21.90;90.70;;;;;;5073955;28;20569;-92
2022/07/08 12:23:09;;;;;;;4.28;1.27;;;22.30;91.20;;;;;;5072224;28;20024;-94
2022/07/08 12:25:48;;;;;;;9.85;2.40;;;22.30;90.30;;;;;;5077491;28;20021;-91
2022/07/08 12:28:21;;;;;;;8.00;1.83;;;22.40;90.20;;;;;;5081794;28;20047;-92
2022/07/08 12:30:47;;;;;;;8.48;1.63;;;22.50;89.50;;;;;;5045469;28;20194;-92
2022/07/08 12:33:13;;;;;;;6.32;1.52;;;22.90;90.90;;;;;;5058367;28;20036;-91
2022/07/08 12:35:38;;;;;;;10.20;1.98;;;23.00;90.20;;;;;;5060831;28;20082;-92
2022/07/08 12:38:06;;;;;;;6.68;1.40;;;22.90;88.10;;;;;;5061371;28;20043;-93
2022/07/08 12:40:42;;;;;;;4.90;1.85;;;23.20;88.10;;;;;;5061443;28;20024;-94
2022/07/08 12:43:10;;;;;;;10.80;3.38;;;23.50;89.60;;;;;;5061603;28;20032;-92
2022/07/08 12:45:36;;;;;;;10.13;1.92;;;23.40;87.70;;;;;;5060257;28;20502;-93
2022/07/08 12:48:03;;;;;;;10.57;1.58;;;23.70;87.00;;;;;;5060268;28;20052;-89
2022/07/08 12:50:31;;;;;;;4.70;1.65;;;24.60;86.50;;;;;;5061652;28;20028;-92
2022/07/08 12:53:06;;;;;;;16.77;1.73;;;25.40;82.20;;;;;;5061937;28;20058;-93
2022/07/08 12:55:31;;;;;;;5.90;1.50;;;25.60;83.20;;;;;;5062009;28;20029;-93